sensor_id;sensor_type;location;lat;lon;timestamp;P1;durP1;ratioP1;P2;durP2;ratioP2
75937;SDS011;64615;32.062;34.834;2023-07-13T00:01:50;5.18;;;2.05;;
75937;SDS011;64615;32.062;34.834;2023-07-13T00:04:20;3.60;;;1.75;;
75937;SDS011;64615;32.062;34.834;2023-07-13T00:06:48;6.55;;;2.20;;
75937;SDS011;64615;32.062;34.834;2023-07-13T00:09:15;5.85;;;1.98;;
75937;SDS011;64615;32.062;34.834;2023-07-13T00:11:42;4.57;;;1.90;;
75937;SDS011;64615;32.062;34.834;2023-07-13T00:14:09;4.10;;;1.73;;
75937;SDS011;64615;32.062;34.834;2023-07-13T00:16:36;4.93;;;1.70;;
75937;SDS011;64615;32.062;34.834;2023-07-13T00:19:04;5.78;;;1.58;;
75937;SDS011;64615;32.062;34.834;2023-07-13T00:21:31;5.03;;;1.90;;
75937;SDS011;64615;32.062;34.834;2023-07-13T00:23:57;2.90;;;1.55;;
75937;SDS011;64615;32.062;34.834;2023-07-13T00:26:23;6.32;;;1.80;;
75937;SDS011;64615;32.062;34.834;2023-07-13T00:28:48;4.78;;;1.70;;
75937;SDS011;64615;32.062;34.834;2023-07-13T00:31:14;4.63;;;1.88;;
75937;SDS011;64615;32.062;34.834;2023-07-13T00:33:40;4.65;;;1.75;;
75937;SDS011;64615;32.062;34.834;2023-07-13T00:36:07;3.58;;;1.70;;
75937;SDS011;64615;32.062;34.834;2023-07-13T00:38:33;4.53;;;1.92;;
75937;SDS011;64615;32.062;34.834;2023-07-13T00:40:59;3.88;;;1.85;;
75937;SDS011;64615;32.062;34.834;2023-07-13T00:43:26;3.95;;;1.65;;
75937;SDS011;64615;32.062;34.834;2023-07-13T00:48:20;6.00;;;1.83;;
75937;SDS011;64615;32.062;34.834;2023-07-13T00:50:51;4.82;;;1.75;;
75937;SDS011;64615;32.062;34.834;2023-07-13T00:53:19;4.13;;;1.70;;
75937;SDS011;64615;32.062;34.834;2023-07-13T00:55:46;4.32;;;1.70;;
75937;SDS011;64615;32.062;34.834;2023-07-13T00:58:14;5.95;;;2.00;;
75937;SDS011;64615;32.062;34.834;2023-07-13T01:00:40;4.07;;;1.60;;
75937;SDS011;64615;32.062;34.834;2023-07-13T01:03:06;5.28;;;1.75;;
75937;SDS011;64615;32.062;34.834;2023-07-13T01:05:33;4.43;;;1.80;;
75937;SDS011;64615;32.062;34.834;2023-07-13T01:08:00;5.57;;;2.15;;
75937;SDS011;64615;32.062;34.834;2023-07-13T01:10:26;5.88;;;2.10;;
75937;SDS011;64615;32.062;34.834;2023-07-13T01:12:53;5.13;;;1.90;;
75937;SDS011;64615;32.062;34.834;2023-07-13T01:18:17;7.82;;;2.15;;
75937;SDS011;64615;32.062;34.834;2023-07-13T01:20:50;5.45;;;1.85;;
75937;SDS011;64615;32.062;34.834;2023-07-13T01:25:52;4.82;;;1.90;;
75937;SDS011;64615;32.062;34.834;2023-07-13T01:28:18;5.18;;;2.10;;
75937;SDS011;64615;32.062;34.834;2023-07-13T01:30:44;4.05;;;1.80;;
75937;SDS011;64615;32.062;34.834;2023-07-13T01:33:15;6.00;;;1.90;;
75937;SDS011;64615;32.062;34.834;2023-07-13T01:35:42;5.10;;;2.08;;
75937;SDS011;64615;32.062;34.834;2023-07-13T01:38:09;5.72;;;2.10;;
75937;SDS011;64615;32.062;34.834;2023-07-13T01:40:36;6.10;;;2.38;;
75937;SDS011;64615;32.062;34.834;2023-07-13T01:43:02;6.95;;;2.20;;
75937;SDS011;64615;32.062;34.834;2023-07-13T01:45:28;6.07;;;1.90;;
75937;SDS011;64615;32.062;34.834;2023-07-13T01:47:54;6.57;;;2.42;;
75937;SDS011;64615;32.062;34.834;2023-07-13T01:50:19;5.60;;;2.05;;
75937;SDS011;64615;32.062;34.834;2023-07-13T01:52:45;6.05;;;2.08;;
75937;SDS011;64615;32.062;34.834;2023-07-13T01:55:11;8.32;;;2.60;;
75937;SDS011;64615;32.062;34.834;2023-07-13T01:57:37;5.45;;;2.50;;
75937;SDS011;64615;32.062;34.834;2023-07-13T02:00:03;8.65;;;2.55;;
75937;SDS011;64615;32.062;34.834;2023-07-13T02:02:31;10.07;;;2.90;;
75937;SDS011;64615;32.062;34.834;2023-07-13T02:04:56;10.10;;;2.40;;
75937;SDS011;64615;32.062;34.834;2023-07-13T02:07:22;7.18;;;2.20;;
75937;SDS011;64615;32.062;34.834;2023-07-13T02:09:47;5.63;;;2.17;;
75937;SDS011;64615;32.062;34.834;2023-07-13T02:12:13;13.25;;;2.40;;
75937;SDS011;64615;32.062;34.834;2023-07-13T02:14:39;9.27;;;2.35;;
75937;SDS011;64615;32.062;34.834;2023-07-13T02:17:05;11.15;;;2.60;;
75937;SDS011;64615;32.062;34.834;2023-07-13T02:19:31;7.28;;;2.30;;
75937;SDS011;64615;32.062;34.834;2023-07-13T02:21:57;7.80;;;2.40;;
75937;SDS011;64615;32.062;34.834;2023-07-13T02:24:23;9.27;;;2.20;;
75937;SDS011;64615;32.062;34.834;2023-07-13T02:26:48;7.20;;;2.38;;
75937;SDS011;64615;32.062;34.834;2023-07-13T02:29:14;5.22;;;2.05;;
75937;SDS011;64615;32.062;34.834;2023-07-13T02:31:40;5.95;;;2.47;;
75937;SDS011;64615;32.062;34.834;2023-07-13T02:34:05;6.45;;;2.28;;
75937;SDS011;64615;32.062;34.834;2023-07-13T02:36:31;5.97;;;2.20;;
75937;SDS011;64615;32.062;34.834;2023-07-13T02:39:00;6.60;;;2.47;;
75937;SDS011;64615;32.062;34.834;2023-07-13T02:41:27;5.38;;;2.20;;
75937;SDS011;64615;32.062;34.834;2023-07-13T02:43:53;6.47;;;2.38;;
75937;SDS011;64615;32.062;34.834;2023-07-13T02:48:49;7.15;;;2.28;;
75937;SDS011;64615;32.062;34.834;2023-07-13T02:51:14;5.28;;;2.40;;
75937;SDS011;64615;32.062;34.834;2023-07-13T02:53:40;6.78;;;2.42;;
75937;SDS011;64615;32.062;34.834;2023-07-13T02:56:06;5.88;;;2.50;;
75937;SDS011;64615;32.062;34.834;2023-07-13T02:58:32;7.32;;;2.50;;
75937;SDS011;64615;32.062;34.834;2023-07-13T03:01:05;6.75;;;2.80;;
75937;SDS011;64615;32.062;34.834;2023-07-13T03:03:32;8.45;;;2.70;;
75937;SDS011;64615;32.062;34.834;2023-07-13T03:05:59;8.93;;;2.80;;
75937;SDS011;64615;32.062;34.834;2023-07-13T03:08:27;12.48;;;3.28;;
75937;SDS011;64615;32.062;34.834;2023-07-13T03:11:03;7.15;;;2.63;;
75937;SDS011;64615;32.062;34.834;2023-07-13T03:13:30;7.30;;;2.70;;
75937;SDS011;64615;32.062;34.834;2023-07-13T03:15:56;9.52;;;3.00;;
75937;SDS011;64615;32.062;34.834;2023-07-13T03:18:22;12.10;;;2.97;;
75937;SDS011;64615;32.062;34.834;2023-07-13T03:20:51;8.82;;;3.17;;
75937;SDS011;64615;32.062;34.834;2023-07-13T03:23:17;7.07;;;3.17;;
75937;SDS011;64615;32.062;34.834;2023-07-13T03:25:44;8.52;;;3.08;;
75937;SDS011;64615;32.062;34.834;2023-07-13T03:28:10;15.13;;;3.20;;
75937;SDS011;64615;32.062;34.834;2023-07-13T03:30:36;11.05;;;2.63;;
75937;SDS011;64615;32.062;34.834;2023-07-13T03:33:02;9.63;;;3.17;;
75937;SDS011;64615;32.062;34.834;2023-07-13T03:35:28;13.13;;;3.47;;
75937;SDS011;64615;32.062;34.834;2023-07-13T03:37:54;8.00;;;3.20;;
75937;SDS011;64615;32.062;34.834;2023-07-13T03:40:20;11.93;;;3.50;;
75937;SDS011;64615;32.062;34.834;2023-07-13T03:42:46;9.05;;;3.60;;
75937;SDS011;64615;32.062;34.834;2023-07-13T03:45:11;15.23;;;3.30;;
75937;SDS011;64615;32.062;34.834;2023-07-13T03:47:37;11.70;;;4.30;;
75937;SDS011;64615;32.062;34.834;2023-07-13T03:50:03;12.25;;;3.83;;
75937;SDS011;64615;32.062;34.834;2023-07-13T03:52:29;8.80;;;3.55;;
75937;SDS011;64615;32.062;34.834;2023-07-13T03:54:55;10.15;;;3.45;;
75937;SDS011;64615;32.062;34.834;2023-07-13T03:57:20;9.88;;;3.55;;
75937;SDS011;64615;32.062;34.834;2023-07-13T03:59:46;11.90;;;3.50;;
75937;SDS011;64615;32.062;34.834;2023-07-13T04:02:11;12.45;;;3.92;;
75937;SDS011;64615;32.062;34.834;2023-07-13T04:04:37;12.88;;;3.60;;
75937;SDS011;64615;32.062;34.834;2023-07-13T04:07:05;9.15;;;3.67;;
75937;SDS011;64615;32.062;34.834;2023-07-13T04:09:33;9.45;;;3.78;;
75937;SDS011;64615;32.062;34.834;2023-07-13T04:11:59;8.82;;;3.92;;
75937;SDS011;64615;32.062;34.834;2023-07-13T04:14:25;10.32;;;3.83;;
75937;SDS011;64615;32.062;34.834;2023-07-13T04:16:50;10.48;;;3.90;;
75937;SDS011;64615;32.062;34.834;2023-07-13T04:19:16;8.48;;;3.88;;
75937;SDS011;64615;32.062;34.834;2023-07-13T04:21:42;12.02;;;4.07;;
75937;SDS011;64615;32.062;34.834;2023-07-13T04:24:08;8.70;;;3.33;;
75937;SDS011;64615;32.062;34.834;2023-07-13T04:26:33;10.93;;;4.10;;
75937;SDS011;64615;32.062;34.834;2023-07-13T04:29:01;8.45;;;3.40;;
75937;SDS011;64615;32.062;34.834;2023-07-13T04:31:29;9.70;;;3.53;;
75937;SDS011;64615;32.062;34.834;2023-07-13T04:33:55;9.32;;;3.70;;
75937;SDS011;64615;32.062;34.834;2023-07-13T04:36:20;11.68;;;3.95;;
75937;SDS011;64615;32.062;34.834;2023-07-13T04:38:46;13.40;;;3.90;;
75937;SDS011;64615;32.062;34.834;2023-07-13T04:41:12;8.73;;;3.70;;
75937;SDS011;64615;32.062;34.834;2023-07-13T04:43:39;10.60;;;3.88;;
75937;SDS011;64615;32.062;34.834;2023-07-13T04:46:06;8.73;;;3.40;;
75937;SDS011;64615;32.062;34.834;2023-07-13T04:50:59;9.80;;;3.97;;
75937;SDS011;64615;32.062;34.834;2023-07-13T04:53:25;7.85;;;3.25;;
75937;SDS011;64615;32.062;34.834;2023-07-13T04:55:51;9.45;;;3.45;;
75937;SDS011;64615;32.062;34.834;2023-07-13T04:58:18;9.50;;;3.72;;
75937;SDS011;64615;32.062;34.834;2023-07-13T05:00:43;9.05;;;3.80;;
75937;SDS011;64615;32.062;34.834;2023-07-13T05:03:09;10.43;;;3.58;;
75937;SDS011;64615;32.062;34.834;2023-07-13T05:05:35;8.27;;;3.33;;
75937;SDS011;64615;32.062;34.834;2023-07-13T05:08:00;9.43;;;3.42;;
75937;SDS011;64615;32.062;34.834;2023-07-13T05:10:27;8.65;;;4.10;;
75937;SDS011;64615;32.062;34.834;2023-07-13T05:12:52;8.38;;;3.17;;
75937;SDS011;64615;32.062;34.834;2023-07-13T05:15:20;8.13;;;3.38;;
75937;SDS011;64615;32.062;34.834;2023-07-13T05:17:47;8.82;;;3.78;;
75937;SDS011;64615;32.062;34.834;2023-07-13T05:20:14;8.10;;;3.40;;
75937;SDS011;64615;32.062;34.834;2023-07-13T05:22:40;7.70;;;3.35;;
75937;SDS011;64615;32.062;34.834;2023-07-13T05:25:07;9.57;;;3.38;;
75937;SDS011;64615;32.062;34.834;2023-07-13T05:27:33;6.47;;;3.05;;
75937;SDS011;64615;32.062;34.834;2023-07-13T05:30:00;10.23;;;3.28;;
75937;SDS011;64615;32.062;34.834;2023-07-13T05:32:26;9.65;;;3.13;;
75937;SDS011;64615;32.062;34.834;2023-07-13T05:34:52;8.15;;;3.47;;
75937;SDS011;64615;32.062;34.834;2023-07-13T05:37:17;7.85;;;3.35;;
75937;SDS011;64615;32.062;34.834;2023-07-13T05:39:43;8.45;;;3.63;;
75937;SDS011;64615;32.062;34.834;2023-07-13T05:42:09;8.38;;;3.60;;
75937;SDS011;64615;32.062;34.834;2023-07-13T05:44:35;7.45;;;3.45;;
75937;SDS011;64615;32.062;34.834;2023-07-13T05:47:00;8.32;;;3.05;;
75937;SDS011;64615;32.062;34.834;2023-07-13T05:49:26;7.07;;;3.03;;
75937;SDS011;64615;32.062;34.834;2023-07-13T05:51:52;8.50;;;2.90;;
75937;SDS011;64615;32.062;34.834;2023-07-13T05:54:18;8.27;;;3.20;;
75937;SDS011;64615;32.062;34.834;2023-07-13T05:56:43;7.13;;;3.28;;
75937;SDS011;64615;32.062;34.834;2023-07-13T05:59:09;7.88;;;3.70;;
75937;SDS011;64615;32.062;34.834;2023-07-13T06:01:35;8.35;;;3.22;;
75937;SDS011;64615;32.062;34.834;2023-07-13T06:04:00;6.60;;;3.25;;
75937;SDS011;64615;32.062;34.834;2023-07-13T06:06:26;10.70;;;3.40;;
75937;SDS011;64615;32.062;34.834;2023-07-13T06:08:52;9.07;;;3.10;;
75937;SDS011;64615;32.062;34.834;2023-07-13T06:11:19;7.88;;;2.95;;
75937;SDS011;64615;32.062;34.834;2023-07-13T06:13:47;6.35;;;3.30;;
75937;SDS011;64615;32.062;34.834;2023-07-13T06:16:13;6.65;;;2.85;;
75937;SDS011;64615;32.062;34.834;2023-07-13T06:18:40;8.57;;;2.78;;
75937;SDS011;64615;32.062;34.834;2023-07-13T06:21:10;6.78;;;2.63;;
75937;SDS011;64615;32.062;34.834;2023-07-13T06:23:38;8.10;;;2.88;;
75937;SDS011;64615;32.062;34.834;2023-07-13T06:26:04;7.50;;;3.20;;
75937;SDS011;64615;32.062;34.834;2023-07-13T06:28:31;6.95;;;2.90;;
75937;SDS011;64615;32.062;34.834;2023-07-13T06:30:58;5.97;;;3.00;;
75937;SDS011;64615;32.062;34.834;2023-07-13T06:33:24;6.55;;;3.00;;
75937;SDS011;64615;32.062;34.834;2023-07-13T06:35:50;7.35;;;3.00;;
75937;SDS011;64615;32.062;34.834;2023-07-13T06:38:15;6.13;;;2.58;;
75937;SDS011;64615;32.062;34.834;2023-07-13T06:40:41;7.07;;;2.97;;
75937;SDS011;64615;32.062;34.834;2023-07-13T06:43:07;6.57;;;3.15;;
75937;SDS011;64615;32.062;34.834;2023-07-13T06:45:40;7.93;;;2.80;;
75937;SDS011;64615;32.062;34.834;2023-07-13T06:48:07;8.98;;;2.90;;
75937;SDS011;64615;32.062;34.834;2023-07-13T06:50:33;6.50;;;2.70;;
75937;SDS011;64615;32.062;34.834;2023-07-13T06:52:59;7.10;;;2.70;;
75937;SDS011;64615;32.062;34.834;2023-07-13T06:55:25;6.78;;;2.90;;
75937;SDS011;64615;32.062;34.834;2023-07-13T06:57:51;6.10;;;2.97;;
75937;SDS011;64615;32.062;34.834;2023-07-13T07:00:17;6.30;;;2.88;;
75937;SDS011;64615;32.062;34.834;2023-07-13T07:02:42;5.93;;;2.63;;
75937;SDS011;64615;32.062;34.834;2023-07-13T07:05:08;8.57;;;2.70;;
75937;SDS011;64615;32.062;34.834;2023-07-13T07:07:34;6.53;;;2.72;;
75937;SDS011;64615;32.062;34.834;2023-07-13T07:09:59;5.95;;;2.80;;
75937;SDS011;64615;32.062;34.834;2023-07-13T07:12:25;7.13;;;2.92;;
75937;SDS011;64615;32.062;34.834;2023-07-13T07:14:51;6.60;;;2.55;;
75937;SDS011;64615;32.062;34.834;2023-07-13T07:17:16;5.68;;;2.55;;
75937;SDS011;64615;32.062;34.834;2023-07-13T07:19:42;7.43;;;2.88;;
75937;SDS011;64615;32.062;34.834;2023-07-13T07:22:08;6.47;;;2.70;;
75937;SDS011;64615;32.062;34.834;2023-07-13T07:24:33;5.65;;;2.70;;
75937;SDS011;64615;32.062;34.834;2023-07-13T07:26:59;5.72;;;2.50;;
75937;SDS011;64615;32.062;34.834;2023-07-13T07:29:24;6.38;;;2.55;;
75937;SDS011;64615;32.062;34.834;2023-07-13T07:31:52;5.53;;;2.53;;
75937;SDS011;64615;32.062;34.834;2023-07-13T07:34:18;9.40;;;2.70;;
75937;SDS011;64615;32.062;34.834;2023-07-13T07:36:44;7.18;;;3.05;;
75937;SDS011;64615;32.062;34.834;2023-07-13T07:39:09;8.80;;;2.65;;
75937;SDS011;64615;32.062;34.834;2023-07-13T07:41:35;10.77;;;2.60;;
75937;SDS011;64615;32.062;34.834;2023-07-13T07:44:01;9.55;;;2.97;;
75937;SDS011;64615;32.062;34.834;2023-07-13T07:46:26;10.98;;;3.28;;
75937;SDS011;64615;32.062;34.834;2023-07-13T07:48:53;10.23;;;3.25;;
75937;SDS011;64615;32.062;34.834;2023-07-13T07:51:18;9.73;;;2.85;;
75937;SDS011;64615;32.062;34.834;2023-07-13T07:53:44;7.07;;;2.97;;
75937;SDS011;64615;32.062;34.834;2023-07-13T07:56:10;9.05;;;3.00;;
75937;SDS011;64615;32.062;34.834;2023-07-13T07:58:35;10.18;;;3.33;;
75937;SDS011;64615;32.062;34.834;2023-07-13T08:01:02;7.53;;;2.80;;
75937;SDS011;64615;32.062;34.834;2023-07-13T08:03:28;8.15;;;2.90;;
75937;SDS011;64615;32.062;34.834;2023-07-13T08:05:54;8.65;;;3.25;;
75937;SDS011;64615;32.062;34.834;2023-07-13T08:08:19;9.70;;;3.03;;
75937;SDS011;64615;32.062;34.834;2023-07-13T08:10:45;9.95;;;3.22;;
75937;SDS011;64615;32.062;34.834;2023-07-13T08:13:11;9.85;;;2.88;;
75937;SDS011;64615;32.062;34.834;2023-07-13T08:15:37;10.00;;;3.15;;
75937;SDS011;64615;32.062;34.834;2023-07-13T08:18:02;8.52;;;2.78;;
75937;SDS011;64615;32.062;34.834;2023-07-13T08:20:28;9.48;;;2.70;;
75937;SDS011;64615;32.062;34.834;2023-07-13T08:22:53;9.55;;;3.33;;
75937;SDS011;64615;32.062;34.834;2023-07-13T08:25:19;8.82;;;2.80;;
75937;SDS011;64615;32.062;34.834;2023-07-13T08:27:45;8.18;;;2.90;;
75937;SDS011;64615;32.062;34.834;2023-07-13T08:30:11;8.52;;;2.92;;
75937;SDS011;64615;32.062;34.834;2023-07-13T08:32:37;9.55;;;2.83;;
75937;SDS011;64615;32.062;34.834;2023-07-13T08:35:03;9.38;;;3.70;;
75937;SDS011;64615;32.062;34.834;2023-07-13T08:37:30;9.60;;;3.10;;
75937;SDS011;64615;32.062;34.834;2023-07-13T08:39:55;8.60;;;3.17;;
75937;SDS011;64615;32.062;34.834;2023-07-13T08:42:25;6.05;;;2.83;;
75937;SDS011;64615;32.062;34.834;2023-07-13T08:45:07;6.78;;;2.63;;
75937;SDS011;64615;32.062;34.834;2023-07-13T08:47:59;8.50;;;2.78;;
75937;SDS011;64615;32.062;34.834;2023-07-13T08:50:31;10.55;;;3.30;;
75937;SDS011;64615;32.062;34.834;2023-07-13T08:53:01;7.47;;;2.70;;
75937;SDS011;64615;32.062;34.834;2023-07-13T08:55:30;7.53;;;2.72;;
75937;SDS011;64615;32.062;34.834;2023-07-13T08:58:03;9.18;;;3.08;;
75937;SDS011;64615;32.062;34.834;2023-07-13T09:00:41;7.30;;;2.78;;
75937;SDS011;64615;32.062;34.834;2023-07-13T09:03:24;9.88;;;3.10;;
75937;SDS011;64615;32.062;34.834;2023-07-13T09:05:58;6.68;;;2.45;;
75937;SDS011;64615;32.062;34.834;2023-07-13T09:08:37;8.60;;;2.90;;
75937;SDS011;64615;32.062;34.834;2023-07-13T09:16:52;8.35;;;3.08;;
75937;SDS011;64615;32.062;34.834;2023-07-13T09:19:21;7.10;;;2.63;;
75937;SDS011;64615;32.062;34.834;2023-07-13T09:21:51;11.20;;;3.58;;
75937;SDS011;64615;32.062;34.834;2023-07-13T09:30:29;8.25;;;2.85;;
75937;SDS011;64615;32.062;34.834;2023-07-13T09:33:10;8.15;;;2.83;;
75937;SDS011;64615;32.062;34.834;2023-07-13T09:35:35;6.45;;;2.95;;
75937;SDS011;64615;32.062;34.834;2023-07-13T09:38:19;7.05;;;2.83;;
75937;SDS011;64615;32.062;34.834;2023-07-13T09:43:25;5.80;;;2.38;;
75937;SDS011;64615;32.062;34.834;2023-07-13T09:48:19;6.72;;;2.50;;
75937;SDS011;64615;32.062;34.834;2023-07-13T09:50:45;7.18;;;2.70;;
75937;SDS011;64615;32.062;34.834;2023-07-13T09:53:15;7.53;;;2.80;;
75937;SDS011;64615;32.062;34.834;2023-07-13T09:55:43;6.70;;;2.40;;
75937;SDS011;64615;32.062;34.834;2023-07-13T10:00:41;5.47;;;2.33;;
75937;SDS011;64615;32.062;34.834;2023-07-13T10:03:28;8.38;;;3.13;;
75937;SDS011;64615;32.062;34.834;2023-07-13T10:06:01;5.00;;;2.58;;
75937;SDS011;64615;32.062;34.834;2023-07-13T10:08:40;6.18;;;2.50;;
75937;SDS011;64615;32.062;34.834;2023-07-13T10:11:10;7.20;;;2.67;;
75937;SDS011;64615;32.062;34.834;2023-07-13T10:13:43;5.97;;;2.75;;
75937;SDS011;64615;32.062;34.834;2023-07-13T10:16:14;6.05;;;2.63;;
75937;SDS011;64615;32.062;34.834;2023-07-13T10:18:47;5.30;;;2.22;;
75937;SDS011;64615;32.062;34.834;2023-07-13T10:21:22;5.60;;;2.50;;
75937;SDS011;64615;32.062;34.834;2023-07-13T10:24:38;5.95;;;2.53;;
75937;SDS011;64615;32.062;34.834;2023-07-13T10:26:45;7.90;;;2.35;;
75937;SDS011;64615;32.062;34.834;2023-07-13T10:29:16;6.15;;;2.25;;
75937;SDS011;64615;32.062;34.834;2023-07-13T10:31:44;6.93;;;2.42;;
75937;SDS011;64615;32.062;34.834;2023-07-13T10:34:11;6.40;;;2.40;;
75937;SDS011;64615;32.062;34.834;2023-07-13T10:36:45;5.05;;;2.42;;
75937;SDS011;64615;32.062;34.834;2023-07-13T10:41:40;7.47;;;2.60;;
75937;SDS011;64615;32.062;34.834;2023-07-13T10:44:12;6.50;;;2.28;;
75937;SDS011;64615;32.062;34.834;2023-07-13T10:46:45;6.53;;;2.72;;
75937;SDS011;64615;32.062;34.834;2023-07-13T10:49:11;5.80;;;2.67;;
75937;SDS011;64615;32.062;34.834;2023-07-13T10:51:37;6.60;;;2.40;;
75937;SDS011;64615;32.062;34.834;2023-07-13T10:54:18;4.57;;;2.22;;
75937;SDS011;64615;32.062;34.834;2023-07-13T10:56:49;8.07;;;2.50;;
75937;SDS011;64615;32.062;34.834;2023-07-13T10:59:17;7.20;;;2.53;;
75937;SDS011;64615;32.062;34.834;2023-07-13T11:04:19;5.93;;;2.20;;
75937;SDS011;64615;32.062;34.834;2023-07-13T11:06:47;8.02;;;2.33;;
75937;SDS011;64615;32.062;34.834;2023-07-13T11:09:35;5.15;;;2.40;;
75937;SDS011;64615;32.062;34.834;2023-07-13T11:12:09;5.18;;;2.28;;
75937;SDS011;64615;32.062;34.834;2023-07-13T11:19:53;4.90;;;2.13;;
75937;SDS011;64615;32.062;34.834;2023-07-13T11:22:41;3.95;;;1.90;;
75937;SDS011;64615;32.062;34.834;2023-07-13T11:25:28;6.18;;;2.38;;
75937;SDS011;64615;32.062;34.834;2023-07-13T11:35:53;5.13;;;2.00;;
75937;SDS011;64615;32.062;34.834;2023-07-13T11:40:56;5.10;;;2.00;;
75937;SDS011;64615;32.062;34.834;2023-07-13T11:43:28;4.25;;;2.03;;
75937;SDS011;64615;32.062;34.834;2023-07-13T11:45:53;4.25;;;1.98;;
75937;SDS011;64615;32.062;34.834;2023-07-13T11:48:23;6.57;;;1.90;;
75937;SDS011;64615;32.062;34.834;2023-07-13T11:51:04;5.45;;;1.85;;
75937;SDS011;64615;32.062;34.834;2023-07-13T11:53:36;5.28;;;2.15;;
75937;SDS011;64615;32.062;34.834;2023-07-13T11:56:04;6.95;;;2.40;;
75937;SDS011;64615;32.062;34.834;2023-07-13T11:58:31;4.38;;;1.98;;
75937;SDS011;64615;32.062;34.834;2023-07-13T12:00:58;4.82;;;2.10;;
75937;SDS011;64615;32.062;34.834;2023-07-13T12:03:26;4.45;;;1.98;;
75937;SDS011;64615;32.062;34.834;2023-07-13T12:06:00;3.63;;;1.75;;
75937;SDS011;64615;32.062;34.834;2023-07-13T12:08:28;5.60;;;1.90;;
75937;SDS011;64615;32.062;34.834;2023-07-13T12:10:59;4.13;;;1.85;;
75937;SDS011;64615;32.062;34.834;2023-07-13T12:13:34;4.07;;;2.00;;
75937;SDS011;64615;32.062;34.834;2023-07-13T12:16:01;4.18;;;1.80;;
75937;SDS011;64615;32.062;34.834;2023-07-13T12:18:30;4.03;;;2.00;;
75937;SDS011;64615;32.062;34.834;2023-07-13T12:20:59;4.93;;;1.60;;
75937;SDS011;64615;32.062;34.834;2023-07-13T12:23:29;5.25;;;2.28;;
75937;SDS011;64615;32.062;34.834;2023-07-13T12:25:58;7.10;;;2.10;;
75937;SDS011;64615;32.062;34.834;2023-07-13T12:31:04;4.47;;;2.10;;
75937;SDS011;64615;32.062;34.834;2023-07-13T12:33:33;7.40;;;1.98;;
75937;SDS011;64615;32.062;34.834;2023-07-13T12:36:00;4.05;;;1.75;;
75937;SDS011;64615;32.062;34.834;2023-07-13T12:38:28;7.05;;;1.98;;
75937;SDS011;64615;32.062;34.834;2023-07-13T12:43:23;11.85;;;2.08;;
75937;SDS011;64615;32.062;34.834;2023-07-13T12:45:56;8.20;;;2.40;;
75937;SDS011;64615;32.062;34.834;2023-07-13T12:48:22;10.73;;;2.38;;
75937;SDS011;64615;32.062;34.834;2023-07-13T12:50:49;11.13;;;2.65;;
75937;SDS011;64615;32.062;34.834;2023-07-13T12:53:21;10.63;;;2.38;;
75937;SDS011;64615;32.062;34.834;2023-07-13T12:55:53;15.88;;;2.55;;
75937;SDS011;64615;32.062;34.834;2023-07-13T12:58:28;12.45;;;2.33;;
75937;SDS011;64615;32.062;34.834;2023-07-13T13:00:58;8.57;;;2.47;;
75937;SDS011;64615;32.062;34.834;2023-07-13T13:03:30;10.35;;;2.65;;
75937;SDS011;64615;32.062;34.834;2023-07-13T13:06:21;7.93;;;2.80;;
75937;SDS011;64615;32.062;34.834;2023-07-13T13:08:47;9.77;;;2.30;;
75937;SDS011;64615;32.062;34.834;2023-07-13T13:11:14;10.60;;;2.70;;
75937;SDS011;64615;32.062;34.834;2023-07-13T13:13:41;13.07;;;2.70;;
75937;SDS011;64615;32.062;34.834;2023-07-13T13:16:16;10.40;;;2.53;;
75937;SDS011;64615;32.062;34.834;2023-07-13T13:18:45;19.60;;;2.78;;
75937;SDS011;64615;32.062;34.834;2023-07-13T13:21:11;15.25;;;2.75;;
75937;SDS011;64615;32.062;34.834;2023-07-13T13:23:37;15.23;;;2.78;;
75937;SDS011;64615;32.062;34.834;2023-07-13T13:26:04;14.50;;;3.03;;
75937;SDS011;64615;32.062;34.834;2023-07-13T13:28:34;11.88;;;2.30;;
75937;SDS011;64615;32.062;34.834;2023-07-13T13:31:00;10.68;;;2.20;;
75937;SDS011;64615;32.062;34.834;2023-07-13T13:33:25;8.23;;;2.47;;
75937;SDS011;64615;32.062;34.834;2023-07-13T13:35:51;11.90;;;2.40;;
75937;SDS011;64615;32.062;34.834;2023-07-13T13:38:17;10.25;;;2.15;;
75937;SDS011;64615;32.062;34.834;2023-07-13T13:40:47;8.98;;;2.30;;
75937;SDS011;64615;32.062;34.834;2023-07-13T13:43:17;12.20;;;2.15;;
75937;SDS011;64615;32.062;34.834;2023-07-13T13:45:44;9.60;;;2.10;;
75937;SDS011;64615;32.062;34.834;2023-07-13T13:48:15;9.38;;;2.20;;
75937;SDS011;64615;32.062;34.834;2023-07-13T13:50:43;13.77;;;2.20;;
75937;SDS011;64615;32.062;34.834;2023-07-13T13:53:10;11.73;;;2.33;;
75937;SDS011;64615;32.062;34.834;2023-07-13T13:55:37;10.70;;;2.40;;
75937;SDS011;64615;32.062;34.834;2023-07-13T13:58:03;20.25;;;2.60;;
75937;SDS011;64615;32.062;34.834;2023-07-13T14:00:29;13.98;;;2.85;;
75937;SDS011;64615;32.062;34.834;2023-07-13T14:02:55;7.63;;;2.00;;
75937;SDS011;64615;32.062;34.834;2023-07-13T14:05:23;12.00;;;2.35;;
75937;SDS011;64615;32.062;34.834;2023-07-13T14:07:53;8.98;;;2.20;;
75937;SDS011;64615;32.062;34.834;2023-07-13T14:10:19;9.43;;;2.00;;
75937;SDS011;64615;32.062;34.834;2023-07-13T14:12:46;14.07;;;2.40;;
75937;SDS011;64615;32.062;34.834;2023-07-13T14:15:26;14.32;;;2.75;;
75937;SDS011;64615;32.062;34.834;2023-07-13T14:17:53;15.25;;;2.40;;
75937;SDS011;64615;32.062;34.834;2023-07-13T14:20:20;11.18;;;2.20;;
75937;SDS011;64615;32.062;34.834;2023-07-13T14:22:49;6.97;;;1.77;;
75937;SDS011;64615;32.062;34.834;2023-07-13T14:25:16;10.35;;;1.80;;
75937;SDS011;64615;32.062;34.834;2023-07-13T14:27:43;10.85;;;2.25;;
75937;SDS011;64615;32.062;34.834;2023-07-13T14:32:39;14.68;;;2.00;;
75937;SDS011;64615;32.062;34.834;2023-07-13T14:35:05;12.20;;;2.20;;
75937;SDS011;64615;32.062;34.834;2023-07-13T14:37:32;14.43;;;2.08;;
75937;SDS011;64615;32.062;34.834;2023-07-13T14:39:59;7.93;;;2.00;;
75937;SDS011;64615;32.062;34.834;2023-07-13T14:42:25;9.43;;;1.90;;
75937;SDS011;64615;32.062;34.834;2023-07-13T14:44:50;18.73;;;2.33;;
75937;SDS011;64615;32.062;34.834;2023-07-13T14:47:16;9.43;;;1.98;;
75937;SDS011;64615;32.062;34.834;2023-07-13T14:49:43;15.65;;;2.10;;
75937;SDS011;64615;32.062;34.834;2023-07-13T14:52:13;10.80;;;2.30;;
75937;SDS011;64615;32.062;34.834;2023-07-13T14:54:41;13.70;;;2.13;;
75937;SDS011;64615;32.062;34.834;2023-07-13T14:57:12;11.68;;;2.35;;
75937;SDS011;64615;32.062;34.834;2023-07-13T14:59:39;9.65;;;1.92;;
75937;SDS011;64615;32.062;34.834;2023-07-13T15:02:27;6.75;;;1.83;;
75937;SDS011;64615;32.062;34.834;2023-07-13T15:04:55;7.50;;;1.70;;
75937;SDS011;64615;32.062;34.834;2023-07-13T15:07:22;13.95;;;2.40;;
75937;SDS011;64615;32.062;34.834;2023-07-13T15:09:48;7.55;;;1.92;;
75937;SDS011;64615;32.062;34.834;2023-07-13T15:12:15;6.10;;;2.03;;
75937;SDS011;64615;32.062;34.834;2023-07-13T15:14:42;9.98;;;1.75;;
75937;SDS011;64615;32.062;34.834;2023-07-13T15:17:27;11.55;;;2.08;;
75937;SDS011;64615;32.062;34.834;2023-07-13T15:19:58;11.77;;;1.63;;
75937;SDS011;64615;32.062;34.834;2023-07-13T15:22:24;17.67;;;2.25;;
75937;SDS011;64615;32.062;34.834;2023-07-13T15:24:50;13.18;;;2.22;;
75937;SDS011;64615;32.062;34.834;2023-07-13T15:27:16;14.55;;;2.70;;
75937;SDS011;64615;32.062;34.834;2023-07-13T15:29:42;13.27;;;2.40;;
75937;SDS011;64615;32.062;34.834;2023-07-13T15:32:15;10.23;;;2.10;;
75937;SDS011;64615;32.062;34.834;2023-07-13T15:34:41;6.20;;;1.80;;
75937;SDS011;64615;32.062;34.834;2023-07-13T15:37:14;9.75;;;2.25;;